Terminal Aerodrome Forecast
Issued by NWS Houston/Galveston, TX

Home | Current Version | Previous Version | Text Only | Print | Product List | Glossary On
Versions: 1 2 3 4 5 6 7 8 9 10 11 12 13 14 15 16 17 18 19 20 21 22 23 24 25 26 27 28 29 30 31 32 33 34 35 36 37 38 39 40 41 42 43 44 45 46 47 48 49 50
000
FTUS44 KHGX 180537
TAFCLL
TAF
KCLL 180537Z 1806/1906 30008KT 5SM -RA BR OVC005
      TEMPO 1806/1808 VRB10G20KT 2SM TSRA BKN003CB
     FM181000 01007KT 4SM -TSRA BR OVC006CB
      TEMPO 1812/1816 1SM +TSRA BR BKN004CB OVC010
     FM181600 12008KT 6SM BR VCTS BKN010 OVC020CB PROB30 1818/1824
      TSRA BKN015CB
     FM190300 VRB03KT 4SM BR OVC003=

USA.gov is the U.S. government's official web portal to all federal, state and local government web resources and services.